Terminal Aerodrome Forecast
Issued by NWS Sterling, VA

Current Version | Previous Version | Graphics & Text | Print | Product List | Glossary On
Versions: 1 2 3 4 5 6 7 8 9 10 11 12 13 14 15 16 17 18 19 20
000
FTUS41 KLWX 270836 AAB
TAFMRB
TAF AMD
KMRB 270836Z 2709/2806 VRB03KT 5SM BR SCT050 BKN090
      TEMPO 2709/2713 2SM BR BKN009
     FM271300 00000KT P6SM BKN080
     FM271600 VRB03KT P6SM VCTS BKN060CB
     FM272100 15004KT P6SM BKN070
     FM280400 VRB03KT P6SM FEW050 SCT200=

USA.gov is the U.S. government's official web portal to all federal, state and local government web resources and services.